sensor_id;sensor_type;location;lat;lon;timestamp;temperature;humidity
58363;DHT22;54977;51.510;7.522;2022-11-22T00:01:38;7.50;74.60
58363;DHT22;54977;51.510;7.522;2022-11-22T00:06:39;7.60;74.00
58363;DHT22;54977;51.510;7.522;2022-11-22T00:11:43;7.40;75.20
58363;DHT22;54977;51.510;7.522;2022-11-22T00:16:45;7.40;75.20
58363;DHT22;54977;51.510;7.522;2022-11-22T00:21:46;7.30;75.90
58363;DHT22;54977;51.510;7.522;2022-11-22T00:31:51;7.30;75.50
58363;DHT22;54977;51.510;7.522;2022-11-22T00:36:53;6.90;77.00
58363;DHT22;54977;51.510;7.522;2022-11-22T00:57:02;7.10;75.70
58363;DHT22;54977;51.510;7.522;2022-11-22T01:02:03;7.40;75.10
58363;DHT22;54977;51.510;7.522;2022-11-22T01:07:05;7.40;75.40
58363;DHT22;54977;51.510;7.522;2022-11-22T01:12:08;7.20;75.40
58363;DHT22;54977;51.510;7.522;2022-11-22T01:17:10;7.40;76.10
58363;DHT22;54977;51.510;7.522;2022-11-22T01:22:11;7.40;75.80
58363;DHT22;54977;51.510;7.522;2022-11-22T01:27:14;7.50;75.80
58363;DHT22;54977;51.510;7.522;2022-11-22T01:32:16;7.50;75.30
58363;DHT22;54977;51.510;7.522;2022-11-22T01:37:18;7.70;75.70
58363;DHT22;54977;51.510;7.522;2022-11-22T01:42:21;7.60;76.10
58363;DHT22;54977;51.510;7.522;2022-11-22T01:47:22;7.60;76.60
58363;DHT22;54977;51.510;7.522;2022-11-22T02:12:34;7.70;77.10
58363;DHT22;54977;51.510;7.522;2022-11-22T02:17:36;7.60;79.90
58363;DHT22;54977;51.510;7.522;2022-11-22T02:22:39;7.40;80.20
58363;DHT22;54977;51.510;7.522;2022-11-22T02:27:44;7.50;80.40
58363;DHT22;54977;51.510;7.522;2022-11-22T02:32:46;7.50;80.30
58363;DHT22;54977;51.510;7.522;2022-11-22T02:37:48;7.50;80.60
58363;DHT22;54977;51.510;7.522;2022-11-22T02:42:54;7.50;80.40
58363;DHT22;54977;51.510;7.522;2022-11-22T02:48:02;7.50;80.70
58363;DHT22;54977;51.510;7.522;2022-11-22T02:53:04;7.60;80.50
58363;DHT22;54977;51.510;7.522;2022-11-22T02:58:08;7.70;80.50
58363;DHT22;54977;51.510;7.522;2022-11-22T03:03:10;7.60;79.90
58363;DHT22;54977;51.510;7.522;2022-11-22T03:38:24;7.60;80.40
58363;DHT22;54977;51.510;7.522;2022-11-22T03:43:26;7.50;79.60
58363;DHT22;54977;51.510;7.522;2022-11-22T03:48:28;7.50;80.00
58363;DHT22;54977;51.510;7.522;2022-11-22T04:13:38;7.60;79.90
58363;DHT22;54977;51.510;7.522;2022-11-22T04:18:57;7.40;80.30
58363;DHT22;54977;51.510;7.522;2022-11-22T04:23:59;7.40;80.60
58363;DHT22;54977;51.510;7.522;2022-11-22T04:29:20;7.60;80.10
58363;DHT22;54977;51.510;7.522;2022-11-22T04:34:21;7.70;79.90
58363;DHT22;54977;51.510;7.522;2022-11-22T04:39:23;7.70;79.20
58363;DHT22;54977;51.510;7.522;2022-11-22T04:54:45;7.50;79.30
58363;DHT22;54977;51.510;7.522;2022-11-22T04:59:47;7.40;79.50
58363;DHT22;54977;51.510;7.522;2022-11-22T05:04:48;7.20;79.70
58363;DHT22;54977;51.510;7.522;2022-11-22T05:09:51;7.10;80.00
58363;DHT22;54977;51.510;7.522;2022-11-22T05:14:53;7.10;79.90
58363;DHT22;54977;51.510;7.522;2022-11-22T05:19:54;7.00;79.60
58363;DHT22;54977;51.510;7.522;2022-11-22T05:24:57;7.00;79.60
58363;DHT22;54977;51.510;7.522;2022-11-22T05:29:59;7.00;79.60
58363;DHT22;54977;51.510;7.522;2022-11-22T05:35:01;6.90;79.80
58363;DHT22;54977;51.510;7.522;2022-11-22T05:40:04;6.90;80.00
58363;DHT22;54977;51.510;7.522;2022-11-22T05:45:07;6.70;80.00
58363;DHT22;54977;51.510;7.522;2022-11-22T05:50:09;6.60;80.50
58363;DHT22;54977;51.510;7.522;2022-11-22T05:55:12;6.50;80.60
58363;DHT22;54977;51.510;7.522;2022-11-22T06:00:14;6.40;81.00
58363;DHT22;54977;51.510;7.522;2022-11-22T06:05:15;6.40;81.10
58363;DHT22;54977;51.510;7.522;2022-11-22T06:10:19;6.30;81.00
58363;DHT22;54977;51.510;7.522;2022-11-22T06:15:21;6.30;81.40
58363;DHT22;54977;51.510;7.522;2022-11-22T06:20:22;6.40;81.20
58363;DHT22;54977;51.510;7.522;2022-11-22T06:25:25;6.40;80.90
58363;DHT22;54977;51.510;7.522;2022-11-22T06:30:27;6.30;80.90
58363;DHT22;54977;51.510;7.522;2022-11-22T06:35:29;6.40;80.70
58363;DHT22;54977;51.510;7.522;2022-11-22T06:40:32;6.40;80.50
58363;DHT22;54977;51.510;7.522;2022-11-22T06:45:34;6.40;80.30
58363;DHT22;54977;51.510;7.522;2022-11-22T06:50:35;6.30;80.40
58363;DHT22;54977;51.510;7.522;2022-11-22T06:55:38;6.30;80.20
58363;DHT22;54977;51.510;7.522;2022-11-22T07:00:40;6.20;80.10
58363;DHT22;54977;51.510;7.522;2022-11-22T07:05:48;6.00;80.50
58363;DHT22;54977;51.510;7.522;2022-11-22T07:10:51;6.00;80.40
58363;DHT22;54977;51.510;7.522;2022-11-22T07:15:53;6.00;80.40
58363;DHT22;54977;51.510;7.522;2022-11-22T07:20:58;6.10;80.20
58363;DHT22;54977;51.510;7.522;2022-11-22T07:26:01;6.00;80.20
58363;DHT22;54977;51.510;7.522;2022-11-22T07:31:04;6.00;80.20
58363;DHT22;54977;51.510;7.522;2022-11-22T07:36:06;6.10;80.10
58363;DHT22;54977;51.510;7.522;2022-11-22T07:41:10;6.10;79.60
58363;DHT22;54977;51.510;7.522;2022-11-22T07:46:14;6.20;79.30
58363;DHT22;54977;51.510;7.522;2022-11-22T07:51:17;6.10;79.30
58363;DHT22;54977;51.510;7.522;2022-11-22T07:56:20;6.00;79.10
58363;DHT22;54977;51.510;7.522;2022-11-22T08:01:22;6.10;78.90
58363;DHT22;54977;51.510;7.522;2022-11-22T08:06:24;6.20;78.50
58363;DHT22;54977;51.510;7.522;2022-11-22T08:11:27;6.30;78.40
58363;DHT22;54977;51.510;7.522;2022-11-22T08:16:28;6.30;77.40
58363;DHT22;54977;51.510;7.522;2022-11-22T08:21:30;6.60;77.30
58363;DHT22;54977;51.510;7.522;2022-11-22T08:26:33;6.60;76.90
58363;DHT22;54977;51.510;7.522;2022-11-22T08:31:35;6.50;76.30
58363;DHT22;54977;51.510;7.522;2022-11-22T08:36:37;6.50;76.20
58363;DHT22;54977;51.510;7.522;2022-11-22T08:41:40;6.70;76.50
58363;DHT22;54977;51.510;7.522;2022-11-22T08:46:44;6.80;76.10
58363;DHT22;54977;51.510;7.522;2022-11-22T08:51:45;7.10;75.30
58363;DHT22;54977;51.510;7.522;2022-11-22T08:56:48;7.40;74.50
58363;DHT22;54977;51.510;7.522;2022-11-22T09:01:50;7.60;73.80
58363;DHT22;54977;51.510;7.522;2022-11-22T09:06:52;7.80;72.30
58363;DHT22;54977;51.510;7.522;2022-11-22T09:11:55;8.00;72.20
58363;DHT22;54977;51.510;7.522;2022-11-22T09:16:56;8.30;69.60
58363;DHT22;54977;51.510;7.522;2022-11-22T09:21:58;8.90;68.50
58363;DHT22;54977;51.510;7.522;2022-11-22T09:27:01;8.90;68.20
58363;DHT22;54977;51.510;7.522;2022-11-22T09:32:03;8.50;68.40
58363;DHT22;54977;51.510;7.522;2022-11-22T09:37:04;8.40;69.70
58363;DHT22;54977;51.510;7.522;2022-11-22T09:47:29;8.40;69.70
58363;DHT22;54977;51.510;7.522;2022-11-22T09:52:36;8.30;69.70
58363;DHT22;54977;51.510;7.522;2022-11-22T09:57:41;8.40;69.60
58363;DHT22;54977;51.510;7.522;2022-11-22T10:02:46;8.40;69.30
58363;DHT22;54977;51.510;7.522;2022-11-22T10:07:51;8.40;69.20
58363;DHT22;54977;51.510;7.522;2022-11-22T10:12:57;8.20;68.80
58363;DHT22;54977;51.510;7.522;2022-11-22T10:18:02;8.50;69.20
58363;DHT22;54977;51.510;7.522;2022-11-22T10:23:05;8.30;67.90
58363;DHT22;54977;51.510;7.522;2022-11-22T10:28:15;8.30;68.20
58363;DHT22;54977;51.510;7.522;2022-11-22T10:33:20;8.90;67.70
58363;DHT22;54977;51.510;7.522;2022-11-22T12:14:02;9.40;66.90
58363;DHT22;54977;51.510;7.522;2022-11-22T12:39:16;9.90;63.00
58363;DHT22;54977;51.510;7.522;2022-11-22T12:54:26;10.50;61.10
58363;DHT22;54977;51.510;7.522;2022-11-22T12:59:31;10.40;60.00
58363;DHT22;54977;51.510;7.522;2022-11-22T13:24:51;10.80;60.40
58363;DHT22;54977;51.510;7.522;2022-11-22T13:29:55;10.90;60.30
58363;DHT22;54977;51.510;7.522;2022-11-22T13:34:59;10.80;60.30
58363;DHT22;54977;51.510;7.522;2022-11-22T13:40:09;10.30;61.30
58363;DHT22;54977;51.510;7.522;2022-11-22T13:45:18;9.90;61.70
58363;DHT22;54977;51.510;7.522;2022-11-22T13:55:58;9.90;62.40
58363;DHT22;54977;51.510;7.522;2022-11-22T14:06:22;9.80;62.70
58363;DHT22;54977;51.510;7.522;2022-11-22T14:11:29;10.00;62.90
58363;DHT22;54977;51.510;7.522;2022-11-22T14:16:40;10.10;62.60
58363;DHT22;54977;51.510;7.522;2022-11-22T14:21:48;9.90;63.30
58363;DHT22;54977;51.510;7.522;2022-11-22T14:31:55;9.60;63.30
58363;DHT22;54977;51.510;7.522;2022-11-22T14:47:53;9.40;64.20
58363;DHT22;54977;51.510;7.522;2022-11-22T14:52:57;9.40;64.80
58363;DHT22;54977;51.510;7.522;2022-11-22T14:58:00;9.50;64.40
58363;DHT22;54977;51.510;7.522;2022-11-22T15:08:23;9.20;64.80
58363;DHT22;54977;51.510;7.522;2022-11-22T15:13:31;9.20;65.50
58363;DHT22;54977;51.510;7.522;2022-11-22T15:18:38;9.10;65.60
58363;DHT22;54977;51.510;7.522;2022-11-22T15:23:42;9.00;66.00
58363;DHT22;54977;51.510;7.522;2022-11-22T15:28:43;8.80;66.40
58363;DHT22;54977;51.510;7.522;2022-11-22T15:33:46;8.40;67.20
58363;DHT22;54977;51.510;7.522;2022-11-22T15:38:49;8.20;68.70
58363;DHT22;54977;51.510;7.522;2022-11-22T15:43:51;8.20;68.50
58363;DHT22;54977;51.510;7.522;2022-11-22T15:48:54;8.30;68.60
58363;DHT22;54977;51.510;7.522;2022-11-22T15:54:06;8.20;69.20
58363;DHT22;54977;51.510;7.522;2022-11-22T15:59:10;8.30;68.90
58363;DHT22;54977;51.510;7.522;2022-11-22T16:04:18;8.20;68.80
58363;DHT22;54977;51.510;7.522;2022-11-22T16:09:24;8.10;69.30
58363;DHT22;54977;51.510;7.522;2022-11-22T16:14:37;7.90;69.80
58363;DHT22;54977;51.510;7.522;2022-11-22T16:19:39;7.80;70.00
58363;DHT22;54977;51.510;7.522;2022-11-22T16:24:42;7.80;70.40
58363;DHT22;54977;51.510;7.522;2022-11-22T18:35:35;7.70;71.30
58363;DHT22;54977;51.510;7.522;2022-11-22T18:40:43;8.10;77.20
58363;DHT22;54977;51.510;7.522;2022-11-22T18:45:44;8.10;76.90
58363;DHT22;54977;51.510;7.522;2022-11-22T18:55:49;8.10;77.40
58363;DHT22;54977;51.510;7.522;2022-11-22T19:00:51;8.10;78.50
58363;DHT22;54977;51.510;7.522;2022-11-22T19:05:53;8.20;78.70
